Time;durP1;ratioP1;P1;durP2;ratioP2;P2;SDS_P1;SDS_P2;PMS_P1;PMS_P2;Temp;Humidity;BMP_temperature;BMP_pressure;BME280_temperature;BME280_humidity;BME280_pressure;Samples;Min_cycle;Max_cycle;Signal;HPM_P1;HPM_P2
2022/05/13 00:01:04;;;;;;;10.93;4.68;;;;;;;12.83;63.97;99454.22;8202542;28;20055;-70
2022/05/13 00:05:06;;;;;;;11.07;4.38;;;;;;;12.82;63.79;99455.31;8206548;28;20054;-70
2022/05/13 00:09:08;;;;;;;13.45;4.50;;;;;;;12.83;63.79;99456.13;8211447;28;20511;-70
2022/05/13 00:13:09;;;;;;;10.95;3.83;;;;;;;12.78;64.13;99453.56;8201590;28;20055;-70
2022/05/13 00:17:12;;;;;;;5.93;3.13;;;;;;;12.72;63.76;99450.19;8201289;28;20048;-71
2022/05/13 00:21:13;;;;;;;11.43;3.38;;;;;;;12.76;63.52;99456.56;8201264;28;20047;-70
2022/05/13 00:25:20;;;;;;;7.63;2.88;;;;;;;12.76;63.44;99445.72;8205283;28;20129;-70
2022/05/13 00:29:22;;;;;;;9.93;2.40;;;;;;;12.75;63.63;99444.13;8200882;28;20166;-70
2022/05/13 00:33:23;;;;;;;9.38;2.33;;;;;;;12.78;63.49;99448.94;8201230;28;20047;-70
2022/05/13 00:37:23;;;;;;;5.10;2.20;;;;;;;12.76;63.36;99434.88;8233454;28;20073;-70
2022/05/13 00:41:28;;;;;;;8.98;1.77;;;;;;;12.71;63.15;99432.31;8219139;28;20082;-70
2022/05/13 00:45:29;;;;;;;6.75;1.52;;;;;;;12.66;63.12;99435.19;8203914;28;20694;-71
2022/05/13 00:49:31;;;;;;;4.30;1.55;;;;;;;12.64;62.80;99431.97;8200867;28;20055;-71
2022/05/13 00:53:33;;;;;;;11.75;1.80;;;;;;;12.63;62.75;99430.41;8203350;28;20113;-70
2022/05/13 00:57:38;;;;;;;3.90;1.30;;;;;;;12.59;62.69;99424.00;8215825;28;20047;-70
2022/05/13 01:01:39;;;;;;;6.57;1.40;;;;;;;12.53;63.14;99427.97;8200981;28;20062;-70
2022/05/13 01:05:41;;;;;;;2.45;1.60;;;;;;;12.47;63.23;99421.09;8217988;28;20043;-70
2022/05/13 01:09:46;;;;;;;6.95;1.67;;;;;;;12.40;62.82;99426.16;8199833;28;20059;-70
2022/05/13 01:13:50;;;;;;;2.55;1.30;;;;;;;12.41;62.11;99419.66;8183120;28;20129;-70
2022/05/13 01:18:07;;;;;;;2.50;1.30;;;;;;;12.42;61.88;99413.13;8186307;28;20131;-70
2022/05/13 01:22:16;;;;;;;3.90;1.40;;;;;;;12.36;61.96;99419.78;8186425;28;20044;-71
2022/05/13 01:26:22;;;;;;;3.33;1.65;;;;;;;12.32;61.99;99410.69;8203578;28;20090;-71
2022/05/13 01:30:28;;;;;;;5.30;1.50;;;;;;;12.28;61.95;99413.22;8214389;28;20388;-70
2022/05/13 01:34:29;;;;;;;5.70;1.50;;;;;;;12.22;61.98;99407.13;8198432;28;20070;-70
2022/05/13 01:38:33;;;;;;;3.88;1.48;;;;;;;12.16;62.13;99400.25;8198977;28;20079;-70
2022/05/13 01:42:34;;;;;;;8.80;1.60;;;;;;;12.14;62.43;99402.47;8198791;28;20058;-70
2022/05/13 01:46:35;;;;;;;4.50;1.83;;;;;;;12.06;62.13;99408.63;8199227;28;20051;-70
2022/05/13 01:50:37;;;;;;;4.93;1.42;;;;;;;12.05;62.09;99398.94;8200927;28;20098;-70
2022/05/13 01:54:38;;;;;;;6.57;1.77;;;;;;;12.02;62.09;99404.97;8228859;28;20114;-70
2022/05/13 01:58:39;;;;;;;9.52;1.60;;;;;;;11.98;61.83;99409.41;8199154;28;20534;-70
2022/05/13 02:07:03;;;;;;;5.00;1.38;;;;;;;11.87;61.83;99397.25;8225841;28;20138;-70
2022/05/13 02:11:05;;;;;;;6.25;1.60;;;;;;;11.77;61.90;99392.09;8233162;28;20503;-70
2022/05/13 02:15:07;;;;;;;9.82;1.60;;;;;;;11.69;62.25;99384.69;8208046;28;20047;-70
2022/05/13 02:19:08;;;;;;;5.10;1.83;;;;;;;11.63;62.13;99385.94;8204783;28;20051;-70
2022/05/13 02:23:09;;;;;;;2.60;1.38;;;;;;;11.59;62.48;99384.94;8216876;28;20347;-70
2022/05/13 02:27:10;;;;;;;3.47;1.35;;;;;;;11.54;62.38;99387.75;8240311;28;20054;-70
2022/05/13 02:31:12;;;;;;;7.30;1.50;;;;;;;11.42;62.52;99391.81;8213796;28;20475;-70
2022/05/13 02:35:13;;;;;;;12.05;1.77;;;;;;;11.33;62.75;99388.25;8211155;28;20051;-71
2022/05/13 02:39:14;;;;;;;4.38;1.40;;;;;;;11.26;62.88;99387.88;8219318;28;20055;-70
2022/05/13 02:43:15;;;;;;;6.97;1.50;;;;;;;11.21;62.99;99393.41;8235795;28;20506;-70
2022/05/13 02:47:16;;;;;;;9.85;1.80;;;;;;;11.14;63.10;99384.94;8208821;28;20051;-70
2022/05/13 02:51:18;;;;;;;7.22;1.80;;;;;;;11.10;63.09;99383.94;8203973;28;20396;-70
2022/05/13 02:55:19;;;;;;;4.80;1.52;;;;;;;11.10;63.08;99378.53;8204402;28;20043;-70
2022/05/13 02:59:20;;;;;;;7.35;1.65;;;;;;;11.11;63.02;99380.13;8202878;28;20051;-70
2022/05/13 03:03:21;;;;;;;4.45;1.60;;;;;;;11.05;63.05;99375.94;8201552;29;20051;-69
2022/05/13 03:07:22;;;;;;;5.78;1.85;;;;;;;11.04;62.96;99389.75;8201121;29;20058;-70
2022/05/13 03:11:23;;;;;;;4.00;1.20;;;;;;;11.06;63.05;99382.94;8203522;28;20115;-70
2022/05/13 03:15:26;;;;;;;6.68;1.85;;;;;;;11.02;63.28;99376.56;8202977;28;20146;-70
2022/05/13 03:19:26;;;;;;;4.63;1.60;;;;;;;10.95;63.52;99382.38;8203374;28;20499;-70
2022/05/13 03:23:28;;;;;;;3.95;1.45;;;;;;;10.88;63.90;99375.78;8202400;28;20138;-70
2022/05/13 03:27:29;;;;;;;6.90;1.70;;;;;;;10.85;63.85;99365.56;8207172;28;20063;-69
2022/05/13 03:31:32;;;;;;;6.97;1.50;;;;;;;10.89;63.83;99366.59;8206983;28;20082;-70
2022/05/13 03:35:32;;;;;;;7.38;1.50;;;;;;;10.89;63.98;99369.28;8201770;28;20583;-71
2022/05/13 03:39:34;;;;;;;4.63;1.88;;;;;;;11.00;63.47;99357.13;8191499;28;20054;-72
2022/05/13 03:43:34;;;;;;;7.95;1.60;;;;;;;11.10;63.49;99362.31;8189322;28;20040;-71
2022/05/13 03:47:35;;;;;;;5.80;1.80;;;;;;;11.18;63.34;99358.88;8184377;28;20051;-72
2022/05/13 03:51:36;;;;;;;5.00;1.52;;;;;;;11.26;63.21;99366.25;8171250;28;20489;-71
2022/05/13 03:55:38;;;;;;;3.95;1.50;;;;;;;11.35;63.14;99359.00;8196781;28;20051;-72
2022/05/13 03:59:40;;;;;;;6.18;1.48;;;;;;;11.41;63.08;99367.81;8181044;28;20060;-71
2022/05/13 04:03:41;;;;;;;3.35;1.40;;;;;;;11.48;63.16;99364.66;8196218;28;20048;-71
2022/05/13 04:16:21;;;;;;;8.00;2.20;;;;;;;12.01;62.39;99364.66;8200930;28;20055;-72
2022/05/13 04:20:22;;;;;;;4.22;1.80;;;;;;;12.17;62.10;99369.38;8201438;28;20075;-72
2022/05/13 04:24:25;;;;;;;8.93;2.17;;;;;;;12.35;61.67;99372.13;8199924;28;20058;-71
2022/05/13 04:28:27;;;;;;;5.40;2.00;;;;;;;12.46;61.64;99376.16;8198123;28;20051;-72
2022/05/13 04:32:28;;;;;;;9.43;2.25;;;;;;;12.58;61.82;99373.66;8215550;28;20099;-72
2022/05/13 04:36:30;;;;;;;8.02;2.00;;;;;;;12.67;61.50;99377.19;8176003;29;20047;-70
2022/05/13 04:40:30;;;;;;;12.23;2.35;;;;;;;12.80;61.74;99378.13;8155402;28;20059;-71
2022/05/13 04:44:31;;;;;;;10.30;2.28;;;;;;;12.89;61.40;99377.06;8173262;28;20047;-71
2022/05/13 04:48:32;;;;;;;6.60;2.40;;;;;;;13.01;61.01;99371.78;8174973;29;20106;-70
2022/05/13 04:52:33;;;;;;;13.63;2.17;;;;;;;13.11;60.76;99387.78;8167982;29;20043;-71
2022/05/13 04:56:35;;;;;;;8.55;2.35;;;;;;;13.22;60.17;99390.19;8188521;28;20047;-70
2022/05/13 05:00:36;;;;;;;6.28;2.30;;;;;;;13.32;59.81;99392.59;8181022;28;20075;-70
2022/05/13 05:04:37;;;;;;;6.57;2.08;;;;;;;13.44;59.35;99384.59;8170722;29;20134;-71
2022/05/13 05:08:39;;;;;;;13.90;2.85;;;;;;;13.52;58.97;99381.09;8210483;28;20053;-70
2022/05/13 05:12:40;;;;;;;6.40;2.50;;;;;;;13.64;58.76;99378.50;8198696;28;20071;-70
2022/05/13 05:16:41;;;;;;;10.88;2.45;;;;;;;13.71;58.68;99383.44;8200198;28;20515;-72
2022/05/13 05:20:46;;;;;;;6.88;2.22;;;;;;;13.82;58.29;99385.50;8197874;28;20137;-70
2022/05/13 05:24:47;;;;;;;5.80;2.28;;;;;;;13.92;57.83;99389.78;8197117;28;20511;-70
2022/05/13 05:28:51;;;;;;;8.32;2.70;;;;;;;14.01;57.65;99392.47;8199449;28;20055;-70
2022/05/13 05:32:53;;;;;;;13.45;2.35;;;;;;;14.11;57.21;99389.41;8199530;28;20081;-70
2022/05/13 05:36:54;;;;;;;6.50;2.10;;;;;;;14.24;57.05;99391.09;8199385;28;20082;-70
2022/05/13 05:40:58;;;;;;;9.43;2.25;;;;;;;14.38;56.86;99380.88;8202296;28;20058;-70
2022/05/13 05:44:59;;;;;;;4.65;2.50;;;;;;;14.50;56.08;99383.66;8205423;28;20051;-70
2022/05/13 05:49:00;;;;;;;15.20;2.70;;;;;;;14.64;55.91;99384.25;8205758;28;20047;-70
2022/05/13 05:53:03;;;;;;;5.55;2.30;;;;;;;14.80;55.22;99382.53;8205783;28;20062;-71
2022/05/13 05:57:13;;;;;;;6.55;2.10;;;;;;;14.94;55.21;99381.50;8205773;28;20047;-70
2022/05/13 06:01:14;;;;;;;7.22;2.03;;;;;;;15.05;54.49;99377.25;8196429;28;20102;-70
2022/05/13 06:05:16;;;;;;;6.45;2.00;;;;;;;15.17;53.84;99380.06;8220171;28;20074;-70
2022/05/13 06:09:17;;;;;;;6.90;1.70;;;;;;;15.29;53.84;99377.38;8205407;28;20063;-70
2022/05/13 06:13:21;;;;;;;6.18;1.65;;;;;;;15.45;53.37;99389.25;8218368;28;20059;-71
2022/05/13 06:17:22;;;;;;;6.63;1.50;;;;;;;15.66;53.03;99380.28;8205199;28;20106;-71
2022/05/13 06:21:23;;;;;;;5.82;1.65;;;;;;;15.77;52.72;99392.34;8205434;28;20589;-70
2022/05/13 06:25:25;;;;;;;3.83;1.60;;;;;;;15.68;52.99;99391.63;8186362;29;20071;-70
2022/05/13 06:29:26;;;;;;;11.20;2.03;;;;;;;15.66;53.08;99391.16;8205202;28;20134;-70
2022/05/13 06:33:27;;;;;;;7.63;1.67;;;;;;;15.81;52.96;99398.72;8204710;28;20086;-71
2022/05/13 06:37:28;;;;;;;6.95;1.80;;;;;;;15.95;53.20;99388.31;8204600;28;20058;-70
2022/05/13 06:41:29;;;;;;;4.38;1.70;;;;;;;16.10;52.81;99389.59;8202322;28;20059;-71
2022/05/13 06:45:30;;;;;;;6.70;1.92;;;;;;;16.23;52.50;99389.25;8217789;28;20043;-70
2022/05/13 06:49:31;;;;;;;9.77;1.50;;;;;;;16.40;52.86;99378.16;8204417;28;20141;-70
2022/05/13 06:53:34;;;;;;;6.72;1.90;;;;;;;16.65;51.52;99383.63;8201249;28;20147;-71
2022/05/13 06:57:37;;;;;;;11.90;2.00;;;;;;;16.85;51.09;99371.78;8203589;28;20044;-71
2022/05/13 07:01:38;;;;;;;3.85;1.60;;;;;;;17.07;50.22;99374.03;8204060;28;20044;-71
2022/05/13 07:05:39;;;;;;;5.70;1.70;;;;;;;17.24;49.50;99373.72;8203319;28;20150;-70
2022/05/13 07:09:41;;;;;;;9.70;1.48;;;;;;;17.41;47.88;99371.84;8203389;28;20051;-71
2022/05/13 07:13:42;;;;;;;9.75;1.50;;;;;;;17.61;45.49;99370.88;8202845;28;20062;-71
2022/05/13 07:17:43;;;;;;;5.50;1.70;;;;;;;17.68;44.50;99362.91;8201778;29;20427;-71
2022/05/13 07:21:44;;;;;;;38.33;2.42;;;;;;;17.77;44.06;99358.06;8202212;28;20186;-71
2022/05/13 07:25:46;;;;;;;8.18;1.52;;;;;;;17.99;43.10;99354.75;8202955;28;20053;-71
2022/05/13 07:29:46;;;;;;;7.38;1.45;;;;;;;17.92;43.45;99361.97;8203273;28;20055;-70
2022/05/13 07:33:48;;;;;;;2.80;1.35;;;;;;;17.92;43.08;99354.56;8199280;28;20087;-71
2022/05/13 07:37:49;;;;;;;3.35;1.50;;;;;;;18.14;42.58;99362.16;8173057;29;20070;-71
2022/05/13 07:41:50;;;;;;;3.78;1.30;;;;;;;18.13;42.02;99355.13;8197723;29;20102;-73
2022/05/13 07:45:51;;;;;;;5.47;1.30;;;;;;;18.23;41.92;99358.47;8183499;28;20047;-71
2022/05/13 07:49:55;;;;;;;4.30;1.35;;;;;;;18.38;41.44;99360.41;8176969;28;20437;-71
2022/05/13 07:53:56;;;;;;;4.07;1.20;;;;;;;18.46;40.13;99345.72;8202511;28;20186;-72
2022/05/13 07:57:57;;;;;;;7.78;1.42;;;;;;;18.53;41.48;99354.09;8202282;28;20499;-71
2022/05/13 08:01:59;;;;;;;3.58;1.50;;;;;;;18.65;40.32;99354.03;8201437;28;20522;-72
2022/05/13 08:06:06;;;;;;;27.48;2.05;;;;;;;18.79;41.01;99343.41;8201730;28;20081;-72
2022/05/13 08:10:07;;;;;;;6.18;1.38;;;;;;;19.03;40.10;99336.09;8216605;28;20044;-71
2022/05/13 08:14:08;;;;;;;25.15;3.28;;;;;;;19.21;38.96;99345.47;8216076;28;20459;-72
2022/05/13 08:18:09;;;;;;;5.25;2.13;;;;;;;19.22;39.56;99333.38;8199649;28;20110;-72
2022/05/13 08:22:10;;;;;;;4.15;1.58;;;;;;;19.30;40.02;99335.09;8200288;28;20053;-72
2022/05/13 08:26:11;;;;;;;5.22;1.20;;;;;;;19.44;39.84;99332.66;8169805;29;20423;-72
2022/05/13 08:30:14;;;;;;;2.92;1.05;;;;;;;19.53;39.24;99333.22;8169721;29;20048;-72
2022/05/13 08:34:16;;;;;;;4.20;1.27;;;;;;;19.64;39.71;99323.28;8170134;29;20060;-72
2022/05/13 08:38:21;;;;;;;3.92;1.50;;;;;;;19.56;38.82;99327.03;8169867;29;20431;-72
2022/05/13 08:42:43;;;;;;;4.95;1.50;;;;;;;19.59;38.34;99309.06;8183227;28;20099;-72
2022/05/13 08:47:18;;;;;;;7.90;1.75;;;;;;;19.80;39.84;99321.22;8184472;28;20055;-72
2022/05/13 08:51:30;;;;;;;7.18;1.83;;;;;;;19.96;39.92;99312.09;8169423;29;20062;-72
2022/05/13 08:55:37;;;;;;;11.20;1.70;;;;;;;20.23;40.15;99305.47;8169143;29;20051;-72
2022/05/13 08:59:49;;;;;;;3.45;1.30;;;;;;;20.40;40.08;99299.53;8188151;28;20047;-72
2022/05/13 09:03:55;;;;;;;4.93;1.50;;;;;;;20.24;39.55;99296.91;8199222;28;20105;-72
2022/05/13 09:07:56;;;;;;;4.30;1.60;;;;;;;20.22;40.06;99292.94;8199087;29;20130;-73
2022/05/13 09:11:57;;;;;;;13.38;1.85;;;;;;;20.08;40.24;99292.72;8213811;28;20051;-72
2022/05/13 09:16:00;;;;;;;5.93;1.60;;;;;;;20.19;39.97;99293.69;8199310;28;20071;-72
2022/05/13 09:20:30;;;;;;;13.68;2.17;;;;;;;20.27;40.54;99295.34;8199177;28;20059;-71
2022/05/13 09:24:31;;;;;;;9.40;1.40;;;;;;;20.39;39.32;99270.50;8131328;29;20071;-72
2022/05/13 09:28:35;;;;;;;4.40;1.50;;;;;;;20.65;39.63;99262.25;8111650;29;20139;-72
2022/05/13 09:32:36;;;;;;;6.65;1.95;;;;;;;20.99;39.14;99260.31;8132165;29;20468;-71
2022/05/13 09:36:37;;;;;;;9.75;2.60;;;;;;;21.23;39.60;99256.31;8100403;29;20133;-72
2022/05/13 09:40:38;;;;;;;8.57;1.90;;;;;;;21.65;38.35;99257.91;8110847;29;20088;-73
2022/05/13 09:44:41;;;;;;;6.28;2.13;;;;;;;21.80;36.67;99243.13;8131297;29;20103;-72
2022/05/13 09:49:23;;;;;;;5.75;1.80;;;;;;;21.70;37.26;99243.81;8098656;29;20123;-72
2022/05/13 09:53:24;;;;;;;12.18;2.22;;;;;;;21.84;36.81;99243.94;8069445;29;20060;-72
2022/05/13 09:57:31;;;;;;;7.82;1.85;;;;;;;22.37;35.79;99227.03;8068888;29;20056;-72
2022/05/13 10:01:33;;;;;;;3.83;1.40;;;;;;;22.59;35.34;99217.75;8074492;29;20053;-72
2022/05/13 10:05:34;;;;;;;6.32;1.52;;;;;;;22.90;35.46;99211.59;8097924;29;20044;-72
2022/05/13 10:13:59;;;;;;;4.43;1.70;;;;;;;22.96;33.59;99215.56;8099211;29;20120;-73
2022/05/13 10:18:30;;;;;;;4.55;1.55;;;;;;;23.26;32.82;99206.22;8081265;29;20059;-73
2022/05/13 10:22:55;;;;;;;5.78;1.48;;;;;;;23.07;33.73;99208.13;8035441;29;20140;-72
2022/05/13 10:26:57;;;;;;;9.18;1.92;;;;;;;22.56;33.95;99191.00;8038107;29;20045;-73
2022/05/13 10:30:58;;;;;;;4.00;1.50;;;;;;;21.99;34.82;99198.13;8122075;29;20045;-72
2022/05/13 10:35:04;;;;;;;4.50;1.35;;;;;;;21.85;35.05;99179.53;8136859;29;20056;-72
2022/05/13 10:39:24;;;;;;;3.58;1.75;;;;;;;22.04;35.49;99171.06;8134237;29;20138;-72
2022/05/13 10:43:33;;;;;;;6.15;1.38;;;;;;;22.48;35.98;99161.84;8137479;29;20063;-73
2022/05/13 10:47:50;;;;;;;7.68;1.88;;;;;;;22.64;35.38;99165.06;8122049;29;20052;-72
2022/05/13 10:51:58;;;;;;;9.60;1.80;;;;;;;23.02;34.83;99180.97;8147660;29;20099;-72
2022/05/13 10:56:10;;;;;;;4.57;1.52;;;;;;;23.46;34.69;99182.66;8168827;29;20055;-73
2022/05/13 11:00:19;;;;;;;7.03;1.75;;;;;;;23.34;34.95;99180.22;8168762;29;20466;-72
2022/05/13 11:04:27;;;;;;;7.78;2.00;;;;;;;22.93;34.40;99183.31;8199592;28;20125;-72
2022/05/13 11:08:36;;;;;;;;;;;;;;;22.94;34.48;99179.38;8201921;28;20557;-72
2022/05/13 11:13:12;;;;;;;6.03;1.70;;;;;;;22.90;35.60;99184.06;8233926;28;19923;-71
2022/05/13 11:17:24;;;;;;;4.47;1.40;;;;;;;22.85;35.14;99169.88;8201251;28;20431;-72
2022/05/13 11:22:01;;;;;;;15.05;2.08;;;;;;;22.59;35.41;99173.69;8218440;28;20407;-72
2022/05/13 11:26:08;;;;;;;6.43;1.67;;;;;;;22.74;35.98;99164.34;8199553;28;20070;-73
2022/05/13 11:30:15;;;;;;;5.15;1.70;;;;;;;22.69;35.58;99161.94;8199445;29;20480;-72
2022/05/13 11:34:28;;;;;;;3.03;1.58;;;;;;;22.60;36.16;99158.78;8198846;28;20090;-72
2022/05/13 11:39:06;;;;;;;4.07;1.50;;;;;;;22.72;36.17;99139.97;8198863;28;20506;-72
2022/05/13 11:43:43;;;;;;;3.00;1.40;;;;;;;22.66;36.63;99140.72;8198587;29;20058;-73
2022/05/13 11:47:59;;;;;;;6.63;1.75;;;;;;;22.87;36.46;99135.28;8198663;29;20130;-72
2022/05/13 11:52:12;;;;;;;4.25;1.58;;;;;;;23.06;35.71;99137.69;8198243;29;20051;-72
2022/05/13 11:56:18;;;;;;;5.55;1.50;;;;;;;22.71;36.06;99137.59;8198089;29;20566;-72
2022/05/13 12:00:37;;;;;;;4.32;1.70;;;;;;;22.85;37.13;99126.63;8198610;29;20098;-72
2022/05/13 12:04:58;;;;;;;4.20;1.60;;;;;;;23.19;36.99;99118.03;8199950;28;20052;-72
2022/05/13 12:08:59;;;;;;;8.98;1.75;;;;;;;23.22;36.24;99122.75;8191980;29;20066;-73
2022/05/13 12:13:11;;;;;;;5.80;1.80;;;;;;;22.67;36.67;99114.75;8202204;29;20061;-72
2022/05/13 12:17:36;;;;;;;4.57;1.67;;;;;;;22.44;37.10;99095.00;8195534;28;20047;-73
2022/05/13 12:21:44;;;;;;;7.20;1.90;;;;;;;22.34;38.01;99091.06;8196617;29;20043;-73
2022/05/13 12:26:06;;;;;;;6.27;1.87;;;;;;;22.78;38.47;99085.31;8200406;28;20068;-73
2022/05/13 12:30:41;;;;;;;9.23;1.80;;;;;;;23.20;36.77;99070.03;8225658;28;20050;-73
2022/05/13 12:39:23;;;;;;;7.93;2.00;;;;;;;23.92;35.95;99067.59;8187517;28;20127;-72
2022/05/13 12:44:03;;;;;;;26.58;2.30;;;;;;;23.94;35.76;99059.69;8132759;29;20056;-72
2022/05/13 12:48:06;;;;;;;9.18;1.60;;;;;;;23.57;35.15;99062.16;8132430;29;20566;-71
2022/05/13 12:52:16;;;;;;;8.80;1.92;;;;;;;22.80;36.36;99062.88;8101226;29;20452;-73
2022/05/13 12:56:41;;;;;;;5.68;1.38;;;;;;;22.51;36.54;99073.03;8132447;29;20064;-71
2022/05/13 13:00:47;;;;;;;7.07;2.00;;;;;;;22.39;36.07;99067.88;8095200;29;20569;-72
2022/05/13 13:05:01;;;;;;;2.85;1.40;;;;;;;22.63;36.20;99069.94;8070151;29;20156;-73
2022/05/13 13:09:02;;;;;;;4.53;1.60;;;;;;;23.51;33.64;99063.72;8103846;29;20093;-72
2022/05/13 13:13:10;;;;;;;4.75;1.40;;;;;;;24.06;32.51;99060.47;8176489;29;20539;-71
2022/05/13 13:17:50;;;;;;;106.50;4.20;;;;;;;23.91;32.33;99049.44;8218579;28;20047;-71
2022/05/13 13:21:52;;;;;;;;;;;;;;;23.35;32.94;99055.06;8165777;29;20484;-72
2022/05/13 13:25:54;;;;;;;54.28;4.03;;;;;;;23.44;34.10;99052.69;8229017;28;19922;-71
2022/05/13 13:29:59;;;;;;;5.78;1.50;;;;;;;23.09;34.19;99054.28;8189152;28;20046;-72
2022/05/13 13:34:00;;;;;;;6.18;1.73;;;;;;;22.97;35.38;99068.44;8213303;28;20094;-72
2022/05/13 13:38:04;;;;;;;5.50;1.83;;;;;;;22.88;35.05;99048.75;8196010;28;20062;-72
2022/05/13 13:42:08;;;;;;;5.32;1.38;;;;;;;23.47;34.90;99040.91;8196260;28;20355;-73
2022/05/13 13:46:16;;;;;;;3.63;1.13;;;;;;;23.84;33.72;99037.69;8223658;28;20098;-72
2022/05/13 13:50:26;;;;;;;8.33;1.50;;;;;;;25.51;30.59;99040.97;8219446;28;20543;-72
2022/05/13 13:54:53;;;;;;;6.30;1.58;;;;;;;24.49;31.20;99050.81;8226634;28;20137;-72
2022/05/13 13:59:06;;;;;;;7.45;1.60;;;;;;;25.69;29.96;99040.84;8115228;29;20051;-72
2022/05/13 14:03:11;;;;;;;4.35;1.48;;;;;;;27.11;28.07;99048.09;8135893;29;20070;-72
2022/05/13 14:07:13;;;;;;;4.70;1.73;;;;;;;26.21;29.66;99040.63;8103550;29;20044;-72
2022/05/13 14:11:17;;;;;;;3.95;1.38;;;;;;;26.77;29.11;99050.16;8121737;29;20052;-72
2022/05/13 14:15:22;;;;;;;6.45;1.75;;;;;;;26.31;29.58;99046.06;8134770;29;20071;-72
2022/05/13 14:19:25;;;;;;;4.22;1.30;;;;;;;28.98;25.07;99037.22;8118971;29;20427;-71
2022/05/13 14:23:31;;;;;;;3.47;1.05;;;;;;;29.24;24.86;99044.53;8120825;29;20131;-73
2022/05/13 14:27:33;;;;;;;6.20;1.50;;;;;;;28.14;26.54;99052.56;8131615;29;20412;-73
2022/05/13 14:31:37;;;;;;;5.82;1.33;;;;;;;26.80;27.81;99060.41;8134122;29;20040;-72
2022/05/13 14:35:38;;;;;;;5.18;1.42;;;;;;;30.08;24.57;99051.09;8173004;28;20102;-72
2022/05/13 14:39:51;;;;;;;4.60;1.58;;;;;;;31.28;23.32;99052.97;8203471;28;20055;-72
2022/05/13 14:43:55;;;;;;;5.93;1.30;;;;;;;33.01;21.39;99042.22;8202270;28;20094;-72
2022/05/13 14:48:26;;;;;;;3.97;1.25;;;;;;;33.37;20.82;99055.56;8200658;28;20055;-73
2022/05/13 14:52:33;;;;;;;5.03;1.70;;;;;;;33.36;19.67;99065.22;8202358;28;20051;-73
2022/05/13 14:56:49;;;;;;;7.28;1.60;;;;;;;32.57;19.25;99049.97;8202259;28;20093;-72
2022/05/13 15:00:52;;;;;;;20.00;1.52;;;;;;;30.81;21.14;99054.91;8214180;28;20058;-72
2022/05/13 15:04:56;;;;;;;5.68;1.40;;;;;;;29.49;23.38;99055.06;8194659;28;20537;-73
2022/05/13 15:09:18;;;;;;;4.53;1.30;;;;;;;30.71;22.37;99058.81;8214466;28;20053;-73
2022/05/13 15:13:23;;;;;;;11.32;1.60;;;;;;;30.52;22.15;99069.69;8223523;28;20135;-73
2022/05/13 15:17:25;;;;;;;9.68;1.38;;;;;;;29.72;22.84;99074.31;8222039;28;20518;-73
2022/05/13 15:21:27;;;;;;;5.38;1.38;;;;;;;28.69;23.92;99076.00;8228000;28;20090;-72
2022/05/13 15:25:28;;;;;;;12.90;1.80;;;;;;;26.84;25.79;99083.31;8222482;28;20177;-73
2022/05/13 15:29:32;;;;;;;12.40;1.52;;;;;;;27.12;25.88;99088.47;8223839;28;20193;-72
2022/05/13 15:33:33;;;;;;;8.55;1.60;;;;;;;27.04;26.09;99092.53;8210302;28;20062;-72
2022/05/13 15:37:36;;;;;;;12.07;2.00;;;;;;;26.57;25.66;99090.81;8206679;28;20435;-71
2022/05/13 15:41:37;;;;;;;8.50;1.50;;;;;;;26.15;26.25;99109.50;8199558;28;20134;-72
2022/05/13 15:45:41;;;;;;;14.77;1.65;;;;;;;25.37;26.40;99099.19;8199472;28;20047;-72
2022/05/13 15:54:02;;;;;;;20.02;2.17;;;;;;;25.62;26.27;99116.34;8200486;28;20047;-72
2022/05/13 15:58:07;;;;;;;8.20;1.65;;;;;;;25.19;26.41;99120.63;8203473;28;20043;-72
2022/05/13 16:02:08;;;;;;;16.02;1.73;;;;;;;24.56;27.03;99117.03;8198879;28;20125;-72
2022/05/13 16:06:12;;;;;;;18.67;1.60;;;;;;;23.82;27.51;99118.03;8196589;28;20110;-72
2022/05/13 16:10:15;;;;;;;5.72;1.45;;;;;;;23.67;28.16;99121.22;8182711;29;20530;-72
2022/05/13 16:14:16;;;;;;;13.73;1.48;;;;;;;23.40;28.30;99131.81;8215772;28;20109;-72
2022/05/13 16:18:21;;;;;;;8.27;1.55;;;;;;;23.59;28.25;99136.97;8198066;28;20043;-72
2022/05/13 16:22:22;;;;;;;9.05;1.80;;;;;;;23.31;28.27;99136.94;8210241;28;20424;-72
2022/05/13 16:26:26;;;;;;;10.75;1.95;;;;;;;23.13;28.97;99148.72;8199239;28;20058;-71
2022/05/13 16:30:27;;;;;;;10.32;1.70;;;;;;;23.08;29.02;99151.88;8205597;28;20463;-74
2022/05/13 16:34:28;;;;;;;12.43;1.80;;;;;;;22.87;29.10;99151.81;8200648;28;20046;-72
2022/05/13 16:38:30;;;;;;;11.35;1.92;;;;;;;22.77;29.85;99169.09;8200339;28;20141;-71
2022/05/13 16:42:34;;;;;;;12.98;1.77;;;;;;;22.70;30.21;99169.81;8199680;28;20142;-72
2022/05/13 16:46:35;;;;;;;13.07;1.90;;;;;;;22.38;30.64;99179.09;8213672;28;21115;-72
2022/05/13 16:50:37;;;;;;;10.57;2.28;;;;;;;22.10;30.92;99180.50;8197336;28;20063;-72
2022/05/13 16:54:38;;;;;;;11.13;1.85;;;;;;;21.85;31.66;99190.53;8197806;29;20063;-72
2022/05/13 16:58:40;;;;;;;10.48;2.28;;;;;;;21.66;32.25;99194.31;8204336;28;20058;-72
2022/05/13 17:02:42;;;;;;;9.32;2.50;;;;;;;21.45;32.71;99205.91;8199469;28;20559;-72
2022/05/13 17:06:43;;;;;;;6.45;2.22;;;;;;;21.27;33.55;99204.94;8198584;28;20400;-72
2022/05/13 17:19:26;;;;;;;11.18;2.97;;;;;;;20.77;37.19;99233.00;8203044;28;20043;-72
2022/05/13 17:23:32;;;;;;;12.13;3.50;;;;;;;20.67;37.82;99243.44;8200002;28;20048;-71
2022/05/13 17:27:50;;;;;;;15.93;3.35;;;;;;;20.39;38.56;99232.09;8199569;28;20085;-72
2022/05/13 17:31:52;;;;;;;14.37;3.60;;;;;;;20.29;39.18;99260.13;8200259;28;20115;-71
2022/05/13 17:35:54;;;;;;;15.23;3.97;;;;;;;20.10;39.44;99257.47;8205198;28;20142;-72
2022/05/13 17:40:01;;;;;;;11.63;3.55;;;;;;;20.00;39.82;99266.31;8208043;28;20051;-72
2022/05/13 17:44:02;;;;;;;9.90;3.53;;;;;;;19.70;40.18;99272.50;8205519;28;20058;-72
2022/05/13 17:48:05;;;;;;;12.23;3.15;;;;;;;19.50;40.24;99284.66;8209029;28;20047;-72
2022/05/13 17:52:08;;;;;;;13.18;3.42;;;;;;;19.37;40.44;99288.69;8206831;28;20423;-72
2022/05/13 17:56:09;;;;;;;6.82;3.10;;;;;;;19.20;40.81;99297.34;8205413;28;20102;-72
2022/05/13 18:00:13;;;;;;;8.02;3.00;;;;;;;19.09;40.80;99304.56;8207080;28;20107;-72
2022/05/13 18:04:14;;;;;;;12.10;2.92;;;;;;;18.93;40.22;99310.88;8205770;28;20039;-72
2022/05/13 18:08:15;;;;;;;15.48;3.05;;;;;;;18.74;40.37;99313.59;8209005;28;20046;-72
2022/05/13 18:12:16;;;;;;;14.13;3.13;;;;;;;18.53;40.54;99324.03;8203346;28;20055;-72
2022/05/13 18:16:17;;;;;;;20.52;4.60;;;;;;;18.34;40.95;99332.19;8207255;28;20046;-72
2022/05/13 18:20:19;;;;;;;8.77;2.30;;;;;;;18.12;41.40;99331.66;8208567;28;20075;-72
2022/05/13 18:24:20;;;;;;;7.50;2.45;;;;;;;18.05;41.64;99344.34;8208146;28;20047;-71
2022/05/13 18:28:22;;;;;;;8.48;2.35;;;;;;;18.00;42.15;99350.88;8205622;28;20054;-71
2022/05/13 18:32:25;;;;;;;12.98;2.28;;;;;;;17.98;42.53;99358.63;8205927;28;20055;-71
2022/05/13 18:36:26;;;;;;;8.30;2.65;;;;;;;17.96;42.51;99360.94;8206202;28;20070;-72
2022/05/13 18:49:06;;;;;;;;;;;;;;;17.70;42.05;99379.75;8198738;28;20507;-72
2022/05/13 18:53:08;;;;;;;9.80;2.30;;;;;;;17.55;42.09;99388.66;8203350;28;19930;-72
2022/05/13 18:57:09;;;;;;;9.25;2.08;;;;;;;17.36;42.27;99413.84;8211737;28;20483;-72
2022/05/13 19:01:11;;;;;;;6.82;2.20;;;;;;;17.23;42.18;99399.47;8199636;28;20051;-73
2022/05/13 19:05:13;;;;;;;11.13;2.13;;;;;;;17.14;42.53;99411.63;8197844;28;20526;-71
2022/05/13 19:09:14;;;;;;;6.47;2.28;;;;;;;17.10;42.34;99417.00;8201548;28;20385;-71
2022/05/13 19:13:18;;;;;;;9.02;2.50;;;;;;;16.99;42.29;99426.78;8196178;28;20055;-71
2022/05/13 19:17:19;;;;;;;5.72;2.20;;;;;;;16.78;42.84;99431.56;8202178;28;20463;-72
2022/05/13 19:21:20;;;;;;;8.82;2.40;;;;;;;16.65;43.03;99438.19;8216029;28;20047;-71
2022/05/13 19:25:24;;;;;;;5.03;2.05;;;;;;;16.52;43.12;99444.72;8194238;28;20075;-71
2022/05/13 19:29:25;;;;;;;6.57;1.90;;;;;;;16.47;43.27;99446.53;8201599;28;20194;-71
2022/05/13 19:33:27;;;;;;;12.05;2.50;;;;;;;16.34;43.71;99444.91;8199492;28;20115;-71
2022/05/13 19:37:28;;;;;;;12.75;3.10;;;;;;;16.26;43.83;99448.53;8198200;28;20337;-73
2022/05/13 19:41:33;;;;;;;9.60;2.63;;;;;;;16.12;44.27;99458.97;8201465;28;20051;-71
2022/05/13 19:45:36;;;;;;;12.25;2.63;;;;;;;15.96;44.64;99455.28;8201768;28;20039;-71
2022/05/13 19:49:38;;;;;;;5.80;2.38;;;;;;;15.82;45.33;99455.56;8202293;28;20496;-71
2022/05/13 19:53:39;;;;;;;13.45;2.65;;;;;;;15.70;45.73;99462.91;8191792;28;20518;-71